Nearby METAR Reports

 

KBUF - Buffalo/Cheektow, New York, USA
Distance from station: ENE 2mi, 3km
Updated: 11/21/2017 11:54am
Mostly cloudy
Mostly cloudy
 Wind from SW
Wind: SW 17 mph , 28 km/h, Gust: 32 mph , 52 km/h
Temperature: 52°F , 11°C
Dew Point: 27°F , -3°C
Humidity: 38%
Barometer: 29.72 inHg , 1006.4 hPa
Clouds: Mostly cloudy
Visibility: 10 miles , 16 km
Cloud details: Few Clouds 12000 ft
Mostly cloudy 20000 ft
Mostly cloudy 25000 ft
2017/11/21 16:54 KBUF 211654Z 22015G28KT 10SM FEW120 BKN200 BKN250 11/M03 A2972 RMK AO2 PK WND 21033/1639 SLP068 T01111033 $
KIAG - Niagara Falls, New York, USA
Distance from station: NNW 16mi, 25km
Updated: 11/21/2017 11:53am
Clear
Clear
 Wind from SW
Wind: SW 30 mph , 48 km/h, Gust: 40 mph , 65 km/h
Temperature: 52°F , 11°C
Dew Point: 30°F , -1°C
Humidity: 44%
Barometer: 29.70 inHg , 1005.8 hPa
Clouds: Clear
Visibility: 10 miles , 16 km
2017/11/21 16:53 KIAG 211653Z 22026G35KT 10SM CLR 11/M01 A2970 RMK AO2 PK WND 22041/1606 SLP064 T01111011
 
CYSN - St. Catharines A, Ontario, Canada
Distance from station: NW 28mi, 45km
Updated: 11/21/2017 12:00pm
Mostly cloudy
Mostly cloudy
 Wind from SW
Wind: SW 30 mph , 48 km/h, Gust: 43 mph , 69 km/h
Temperature: 52°F , 11°C
Dew Point: 32°F , 0°C
Humidity: 47%
Barometer: 29.68 inHg , 1005.1 hPa
Clouds: Mostly cloudy
Visibility: 15 miles , 24 km
Cloud details: Few Clouds 15000 ft
Mostly cloudy 22000 ft
2017/11/21 17:00 CYSN 211700Z 22026G37KT 15SM FEW150 BKN220 11/00 A2968 RMK AC1CI5 SLP055
CWWZ - Port Weller (mar, Ontario, Canada
Distance from station: NW 32mi, 51km
Updated: 11/21/2017 12:00pm

 Wind from SW
Wind: SW 18 mph , 30 km/h, Gust: 31 mph , 50 km/h
Temperature: 50°F , 10°C
Wind Chill: 44°F , 7°C
Dew Point: 32°F , 0°C
Humidity: 50%
2017/11/21 17:00 CWWZ 211700Z AUTO 22016G27KT 10/M00 RMK AO1 PK WND 23031/1624 SLP052 T01021001 58008
 
CXVN - Vineland (au8), Ontario, Canada
Distance from station: WNW 37mi, 59km
Updated: 11/21/2017 12:00pm

 Wind from SW
Wind: SW 26 mph , 43 km/h, Gust: 44 mph , 70 km/h
Temperature: 50°F , 10°C
Wind Chill: 43°F , 6°C
Dew Point: 32°F , 0°C
Humidity: 50%
2017/11/21 17:00 CXVN 211700Z AUTO 22023G38KT 10/M00 RMK AO1 SOG 00 8010 PK WND 22038/1654 SLP043 T00951002 50003
KDKK - Dunkirk, New York, USA
Distance from station: SW 39mi, 63km
Updated: 11/21/2017 11:53am
Clear
Clear
 Wind from SSW
Wind: SSW 20 mph , 31 km/h, Gust: 29 mph , 46 km/h
Temperature: 54°F , 12°C
Dew Point: 27°F , -3°C
Humidity: 35%
Barometer: 29.76 inHg , 1007.8 hPa
Clouds: Clear
Visibility: 10 miles , 16 km
2017/11/21 16:53 KDKK 211653Z AUTO 20017G25KT 10SM CLR 12/M03 A2976 RMK AO2 PK WND 22031/1612 SLP081 T01171033
 
KOLE - Olean, New York, USA
Distance from station: SSE 52mi, 83km
Updated: 11/21/2017 12:15pm
Clear
Clear
 Wind from SW
Wind: SW 18 mph , 30 km/h, Gust: 28 mph , 44 km/h
Temperature: 45°F , 7°C
Wind Chill: 37°F , 3°C
Dew Point: 19°F , -7°C
Humidity: 37%
Barometer: 29.78 inHg , 1008.5 hPa
Clouds: Clear
Visibility: 10 miles , 16 km
2017/11/21 17:15 KOLE 211715Z AUTO 22016G24KT 10SM CLR 07/M07 A2978 RMK AO2
KROC - Rochester, New York, USA
Distance from station: ENE 56mi, 91km
Updated: 11/21/2017 11:54am
Mostly cloudy
Mostly cloudy
 Wind from SW
Wind: SW 24 mph , 39 km/h, Gust: 35 mph , 56 km/h
Temperature: 54°F , 12°C
Dew Point: 23°F , -5°C
Humidity: 30%
Barometer: 29.74 inHg , 1007.1 hPa
Clouds: Mostly cloudy
Visibility: 10 miles , 16 km
Cloud details: Few Clouds 15000 ft
Mostly cloudy 23000 ft
2017/11/21 16:54 KROC 211654Z 22021G30KT 10SM FEW150 BKN230 12/M05 A2974 RMK AO2 PK WND 24033/1634 SLP076 T01221050
 
CWWB - Burlington Piers, Ontario, Canada
Distance from station: WNW 57mi, 92km
Updated: 11/21/2017 12:00pm

 Wind from S
Wind: S 23 mph , 37 km/h, Gust: 32 mph , 52 km/h
Temperature: 52°F , 11°C
Dew Point: 32°F , 0°C
Humidity: 47%
2017/11/21 17:00 CWWB 211700Z AUTO 19020G28KT 11/M00 RMK AO1 PK WND 19028/1659 SLP047 T01051002 58009
CYTZ - Toronto Il Vor, Ontario, Canada
Distance from station: NNW 58mi, 94km
Updated: 11/21/2017 12:00pm
Clear
Clear
 Wind from SSW
Wind: SSW 16 mph , 26 km/h
Temperature: 48°F , 9°C
Wind Chill: 42°F , 6°C
Dew Point: 37°F , 3°C
Humidity: 66%
Barometer: 29.67 inHg , 1004.7 hPa
Clouds: Clear
Visibility: 9 miles , 14 km
2017/11/21 17:00 CYTZ 211700Z AUTO 21014KT 9SM CLR 09/03 A2967 RMK SLP050
 
KDSV - Dansville, New York, USA
Distance from station: ESE 59mi, 95km
Updated: 11/21/2017 11:54am
Clear
Clear
 Wind from SSW
Wind: SSW 13 mph , 20 km/h, Gust: 24 mph , 39 km/h
Temperature: 55°F , 13°C
Dew Point: 18°F , -8°C
Humidity: 23%
Barometer: 29.77 inHg , 1008.1 hPa
Clouds: Clear
Visibility: 10 miles , 16 km
2017/11/21 16:54 KDSV 211654Z AUTO 21011G21KT 180V240 10SM CLR 13/M08 A2977 RMK AO2 PK WND 17026/1630 SLP093 T01331083
CXTO - Toronto City, Ontario, Canada
Distance from station: NNW 60mi, 97km
Updated: 11/21/2017 12:00pm

 
Temperature: 50°F , 10°C
Dew Point: 34°F , 1°C
Humidity: 54%
2017/11/21 17:00 CXTO 211700Z AUTO 10/01 RMK AO1 SOG 00 8007 SLP047 T00980010
 
KJHW - Jamestown, New York, USA
Distance from station: SSW 60mi, 97km
Updated: 11/21/2017 11:56am
Clear
Clear
 Wind from SSW
Wind: SSW 18 mph , 30 km/h, Gust: 24 mph , 39 km/h
Temperature: 46°F , 8°C
Wind Chill: 39°F , 4°C
Dew Point: 21°F , -6°C
Humidity: 37%
Barometer: 29.79 inHg , 1008.8 hPa
Clouds: Clear
Visibility: 10 miles , 16 km
2017/11/21 16:56 KJHW 211656Z AUTO 21016G21KT 10SM CLR 08/M06 A2979 RMK AO2 PK WND 21029/1635 SLP104 T00781056
CYHM - Hamilton Airport, Ontario, Canada
Distance from station: WNW 61mi, 98km
Updated: 11/21/2017 12:00pm
Few Clouds
Few Clouds
 Wind from SW
Wind: SW 32 mph , 52 km/h, Gust: 44 mph , 70 km/h
Temperature: 50°F , 10°C
Wind Chill: 42°F , 6°C
Dew Point: 34°F , 1°C
Humidity: 54%
Barometer: 29.68 inHg , 1005.1 hPa
Clouds: Few Clouds
Visibility: 15 miles , 24 km
Cloud details: Few Clouds 3000 ft
Few Clouds 16000 ft
Few Clouds 22000 ft
2017/11/21 17:00 CYHM 211700Z 23028G38KT 15SM FEW030 FEW160 FEW220 10/01 A2968 RMK CU1AC1CI1 CU TR SLP055
 
CXHM - Hamilton Rbg Cs, Ontario, Canada
Distance from station: WNW 62mi, 100km
Updated: 10/30/2017 11:00am
NOT Current

 Wind from WSW
Wind: WSW 8 mph , 13 km/h, Gust: 21 mph , 33 km/h
Temperature: 46°F , 8°C
Wind Chill: 42°F , 6°C
Dew Point: 37°F , 3°C
Humidity: 71%
2017/10/30 15:00 CXHM 301500Z AUTO 25007G18KT 08/03 RMK AO1 PK WND 29022/1404 SLP982 T00760027 50010
CYYZ - Toronto/Pearson, Ontario, Canada
Distance from station: NW 67mi, 107km
Updated: 11/21/2017 12:00pm
Mostly cloudy
Mostly cloudy
 Wind from SW
Wind: SW 23 mph , 37 km/h, Gust: 38 mph , 61 km/h
Temperature: 52°F , 11°C
Dew Point: 34°F , 1°C
Humidity: 50%
Barometer: 29.65 inHg , 1004.1 hPa
Clouds: Mostly cloudy
Visibility: 15 miles , 24 km
Cloud details: Few Clouds 3500 ft
Few Clouds 18000 ft
Mostly cloudy 24000 ft
2017/11/21 17:00 CYYZ 211700Z 23020G33KT 15SM FEW035 FEW180 BKN240 11/01 A2965 RMK CF1AC1CI4 CF TR SLP045 DENSITY ALT 600FT
 
CWPS - Long Point (maps, Ontario, Canada
Distance from station: WSW 69mi, 111km
Updated: 11/21/2017 11:00am
NOT Current

 Wind from S
Wind: S 39 mph , 63 km/h
Temperature: 46°F , 8°C
Wind Chill: 35°F , 2°C
Dew Point: 30°F , -1°C
Humidity: 53%
2017/11/21 16:00 CWPS 211600Z AUTO 17034KT 08/M01 RMK AO1 PK WND 17044/1507 SLP065 T00831011 50001
CYOO - Oshawa, Ontario, Canada
Distance from station: N 69mi, 111km
Updated: 11/21/2017 12:20pm
Partly cloudy
Partly cloudy
 Wind from SSW
Wind: SSW 26 mph , 43 km/h, Gust: 36 mph , 57 km/h
Temperature: 48°F , 9°C
Wind Chill: 40°F , 4°C
Dew Point: 34°F , 1°C
Humidity: 58%
Barometer: 29.67 inHg , 1004.7 hPa
Clouds: Partly cloudy
Visibility: 9 miles , 14 km
Cloud details: Few Clouds 22000 ft
Partly cloudy 24000 ft
2017/11/21 17:20 CYOO 211720Z AUTO 20023G31KT 9SM FEW220 SCT240 09/01 A2967 RMK SLP051
 
KELZ - Wellsville, New York, USA
Distance from station: SE 70mi, 112km
Updated: 11/21/2017 11:56am
Clear
Clear
 Wind from SSW
Wind: SSW 16 mph , 26 km/h, Gust: 31 mph , 50 km/h
Temperature: 52°F , 11°C
Dew Point: 19°F , -7°C
Humidity: 28%
Barometer: 29.81 inHg , 1009.5 hPa
Clouds: Clear
Visibility: 10 miles , 16 km
2017/11/21 16:56 KELZ 211656Z AUTO 20014G27KT 160V240 10SM CLR 11/M07 A2981 RMK AO2 PK WND 19027/1655 SLP104 T01111072
CYKZ - Toronto Buttonvi, Ontario, Canada
Distance from station: NNW 72mi, 116km
Updated: 11/21/2017 12:00pm
Mostly cloudy
Mostly cloudy
 Wind from SW
Wind: SW 18 mph , 30 km/h, Gust: 31 mph , 50 km/h
Temperature: 50°F , 10°C
Wind Chill: 44°F , 7°C
Dew Point: 32°F , 0°C
Humidity: 50%
Barometer: 29.64 inHg , 1003.7 hPa
Clouds: Mostly cloudy
Visibility: 15 miles , 24 km
Cloud details: Few Clouds 4000 ft
Few Clouds 18000 ft
Few Clouds 22000 ft
Mostly cloudy 26000 ft
2017/11/21 17:00 CYKZ 211700Z 22016G27KT 15SM FEW040 FEW180 FEW220 BKN260 10/00 A2964 RMK CF1AC1CS1CI5 CF TR AC TR SLP042